sensor_id;sensor_type;location;lat;lon;timestamp;P1;durP1;ratioP1;P2;durP2;ratioP2
11396;SDS011;5754;43.726;7.416;2023-09-19T00:02:00;5.00;;;2.20;;
11396;SDS011;5754;43.726;7.416;2023-09-19T00:04:36;5.40;;;2.20;;
11396;SDS011;5754;43.726;7.416;2023-09-19T00:07:13;6.55;;;2.67;;
11396;SDS011;5754;43.726;7.416;2023-09-19T00:09:51;3.95;;;2.05;;
11396;SDS011;5754;43.726;7.416;2023-09-19T00:12:25;5.85;;;2.47;;
11396;SDS011;5754;43.726;7.416;2023-09-19T00:15:03;8.55;;;2.78;;
11396;SDS011;5754;43.726;7.416;2023-09-19T00:17:40;10.07;;;2.87;;
11396;SDS011;5754;43.726;7.416;2023-09-19T00:20:17;5.20;;;2.60;;
11396;SDS011;5754;43.726;7.416;2023-09-19T00:22:52;5.72;;;2.58;;
11396;SDS011;5754;43.726;7.416;2023-09-19T00:25:27;3.58;;;2.60;;
11396;SDS011;5754;43.726;7.416;2023-09-19T00:28:05;9.85;;;2.62;;
11396;SDS011;5754;43.726;7.416;2023-09-19T00:30:44;6.80;;;2.75;;
11396;SDS011;5754;43.726;7.416;2023-09-19T00:33:24;9.00;;;2.70;;
11396;SDS011;5754;43.726;7.416;2023-09-19T00:36:01;6.80;;;2.85;;
11396;SDS011;5754;43.726;7.416;2023-09-19T00:38:39;5.62;;;2.50;;
11396;SDS011;5754;43.726;7.416;2023-09-19T00:41:14;5.82;;;2.40;;
11396;SDS011;5754;43.726;7.416;2023-09-19T00:43:49;5.15;;;2.72;;
11396;SDS011;5754;43.726;7.416;2023-09-19T00:46:26;4.35;;;2.65;;
11396;SDS011;5754;43.726;7.416;2023-09-19T00:49:01;3.75;;;2.40;;
11396;SDS011;5754;43.726;7.416;2023-09-19T00:51:36;5.82;;;2.70;;
11396;SDS011;5754;43.726;7.416;2023-09-19T00:54:12;7.75;;;2.92;;
11396;SDS011;5754;43.726;7.416;2023-09-19T00:56:51;7.55;;;2.87;;
11396;SDS011;5754;43.726;7.416;2023-09-19T00:59:28;4.62;;;2.50;;
11396;SDS011;5754;43.726;7.416;2023-09-19T01:02:03;4.43;;;2.17;;
11396;SDS011;5754;43.726;7.416;2023-09-19T01:04:39;7.65;;;2.62;;
11396;SDS011;5754;43.726;7.416;2023-09-19T01:07:14;6.12;;;2.67;;
11396;SDS011;5754;43.726;7.416;2023-09-19T01:09:50;4.40;;;2.65;;
11396;SDS011;5754;43.726;7.416;2023-09-19T01:12:32;5.87;;;2.70;;
11396;SDS011;5754;43.726;7.416;2023-09-19T01:21:39;6.07;;;2.45;;
11396;SDS011;5754;43.726;7.416;2023-09-19T01:24:34;4.62;;;2.30;;
11396;SDS011;5754;43.726;7.416;2023-09-19T01:33:25;6.03;;;2.37;;
11396;SDS011;5754;43.726;7.416;2023-09-19T01:36:00;7.68;;;2.22;;
11396;SDS011;5754;43.726;7.416;2023-09-19T01:38:35;5.72;;;2.10;;
11396;SDS011;5754;43.726;7.416;2023-09-19T01:41:11;5.37;;;2.47;;
11396;SDS011;5754;43.726;7.416;2023-09-19T01:43:47;3.10;;;2.28;;
11396;SDS011;5754;43.726;7.416;2023-09-19T01:46:30;4.72;;;2.20;;
11396;SDS011;5754;43.726;7.416;2023-09-19T01:49:14;4.65;;;2.42;;
11396;SDS011;5754;43.726;7.416;2023-09-19T01:52:09;4.80;;;2.00;;
11396;SDS011;5754;43.726;7.416;2023-09-19T01:54:55;6.97;;;2.37;;
11396;SDS011;5754;43.726;7.416;2023-09-19T01:57:36;5.70;;;2.25;;
11396;SDS011;5754;43.726;7.416;2023-09-19T02:00:15;7.37;;;2.67;;
11396;SDS011;5754;43.726;7.416;2023-09-19T02:02:53;4.03;;;2.37;;
11396;SDS011;5754;43.726;7.416;2023-09-19T02:05:33;2.78;;;2.20;;
11396;SDS011;5754;43.726;7.416;2023-09-19T02:08:08;3.83;;;2.05;;
11396;SDS011;5754;43.726;7.416;2023-09-19T02:10:45;6.45;;;2.30;;
11396;SDS011;5754;43.726;7.416;2023-09-19T02:13:23;6.05;;;2.20;;
11396;SDS011;5754;43.726;7.416;2023-09-19T02:16:01;4.32;;;2.00;;
11396;SDS011;5754;43.726;7.416;2023-09-19T02:18:38;2.70;;;1.90;;
11396;SDS011;5754;43.726;7.416;2023-09-19T02:21:13;5.20;;;2.22;;
11396;SDS011;5754;43.726;7.416;2023-09-19T02:23:49;5.32;;;2.30;;
11396;SDS011;5754;43.726;7.416;2023-09-19T02:26:25;5.60;;;1.90;;
11396;SDS011;5754;43.726;7.416;2023-09-19T02:29:01;4.62;;;2.12;;
11396;SDS011;5754;43.726;7.416;2023-09-19T02:31:38;2.95;;;2.33;;
11396;SDS011;5754;43.726;7.416;2023-09-19T02:34:13;3.35;;;2.05;;
11396;SDS011;5754;43.726;7.416;2023-09-19T02:36:50;3.10;;;1.87;;
11396;SDS011;5754;43.726;7.416;2023-09-19T02:39:26;1.90;;;1.80;;
11396;SDS011;5754;43.726;7.416;2023-09-19T02:42:05;3.25;;;1.90;;
11396;SDS011;5754;43.726;7.416;2023-09-19T02:44:40;3.80;;;2.00;;
11396;SDS011;5754;43.726;7.416;2023-09-19T02:47:15;2.67;;;1.62;;
11396;SDS011;5754;43.726;7.416;2023-09-19T02:49:51;3.40;;;1.75;;
11396;SDS011;5754;43.726;7.416;2023-09-19T02:52:26;4.28;;;2.10;;
11396;SDS011;5754;43.726;7.416;2023-09-19T02:55:02;5.15;;;2.30;;
11396;SDS011;5754;43.726;7.416;2023-09-19T02:57:52;5.85;;;2.25;;
11396;SDS011;5754;43.726;7.416;2023-09-19T03:00:30;3.10;;;1.83;;
11396;SDS011;5754;43.726;7.416;2023-09-19T03:03:08;2.28;;;2.08;;
11396;SDS011;5754;43.726;7.416;2023-09-19T03:05:43;3.30;;;1.90;;
11396;SDS011;5754;43.726;7.416;2023-09-19T03:08:21;2.65;;;1.48;;
11396;SDS011;5754;43.726;7.416;2023-09-19T03:10:56;5.10;;;1.92;;
11396;SDS011;5754;43.726;7.416;2023-09-19T03:13:45;2.60;;;1.65;;
11396;SDS011;5754;43.726;7.416;2023-09-19T03:16:21;2.65;;;1.73;;
11396;SDS011;5754;43.726;7.416;2023-09-19T03:18:57;3.55;;;1.70;;
11396;SDS011;5754;43.726;7.416;2023-09-19T03:21:34;4.05;;;1.65;;
11396;SDS011;5754;43.726;7.416;2023-09-19T03:24:10;3.47;;;1.52;;
11396;SDS011;5754;43.726;7.416;2023-09-19T03:26:46;2.90;;;1.70;;
11396;SDS011;5754;43.726;7.416;2023-09-19T03:29:21;3.95;;;2.12;;
11396;SDS011;5754;43.726;7.416;2023-09-19T03:31:57;4.62;;;1.87;;
11396;SDS011;5754;43.726;7.416;2023-09-19T03:34:31;2.17;;;1.62;;
11396;SDS011;5754;43.726;7.416;2023-09-19T03:37:07;4.03;;;1.80;;
11396;SDS011;5754;43.726;7.416;2023-09-19T03:39:43;4.30;;;2.20;;
11396;SDS011;5754;43.726;7.416;2023-09-19T03:42:18;3.80;;;1.90;;
11396;SDS011;5754;43.726;7.416;2023-09-19T03:44:59;4.40;;;2.03;;
11396;SDS011;5754;43.726;7.416;2023-09-19T03:47:40;2.90;;;1.80;;
11396;SDS011;5754;43.726;7.416;2023-09-19T03:50:16;3.35;;;1.50;;
11396;SDS011;5754;43.726;7.416;2023-09-19T03:52:55;3.17;;;1.67;;
11396;SDS011;5754;43.726;7.416;2023-09-19T03:55:30;4.40;;;1.50;;
11396;SDS011;5754;43.726;7.416;2023-09-19T03:58:06;5.12;;;1.70;;
11396;SDS011;5754;43.726;7.416;2023-09-19T04:00:40;3.55;;;1.70;;
11396;SDS011;5754;43.726;7.416;2023-09-19T04:03:16;2.92;;;1.40;;
11396;SDS011;5754;43.726;7.416;2023-09-19T04:05:57;2.78;;;2.00;;
11396;SDS011;5754;43.726;7.416;2023-09-19T04:08:31;3.42;;;1.70;;
11396;SDS011;5754;43.726;7.416;2023-09-19T04:11:05;4.10;;;1.83;;
11396;SDS011;5754;43.726;7.416;2023-09-19T04:13:40;4.93;;;1.50;;
11396;SDS011;5754;43.726;7.416;2023-09-19T04:16:16;4.55;;;1.70;;
11396;SDS011;5754;43.726;7.416;2023-09-19T04:18:53;3.00;;;1.90;;
11396;SDS011;5754;43.726;7.416;2023-09-19T04:21:28;4.35;;;1.75;;
11396;SDS011;5754;43.726;7.416;2023-09-19T04:24:04;2.12;;;1.70;;
11396;SDS011;5754;43.726;7.416;2023-09-19T04:26:39;2.70;;;1.75;;
11396;SDS011;5754;43.726;7.416;2023-09-19T04:29:14;2.65;;;1.50;;
11396;SDS011;5754;43.726;7.416;2023-09-19T04:31:49;2.33;;;1.48;;
11396;SDS011;5754;43.726;7.416;2023-09-19T04:34:26;2.35;;;1.62;;
11396;SDS011;5754;43.726;7.416;2023-09-19T04:37:01;2.08;;;1.58;;
11396;SDS011;5754;43.726;7.416;2023-09-19T04:39:37;3.42;;;1.67;;
11396;SDS011;5754;43.726;7.416;2023-09-19T04:42:13;3.50;;;1.50;;
11396;SDS011;5754;43.726;7.416;2023-09-19T04:44:51;2.67;;;1.60;;
11396;SDS011;5754;43.726;7.416;2023-09-19T04:47:28;4.62;;;1.73;;
11396;SDS011;5754;43.726;7.416;2023-09-19T04:50:03;2.47;;;1.80;;
11396;SDS011;5754;43.726;7.416;2023-09-19T04:52:39;3.45;;;1.37;;
11396;SDS011;5754;43.726;7.416;2023-09-19T04:55:16;2.05;;;1.60;;
11396;SDS011;5754;43.726;7.416;2023-09-19T04:57:52;1.70;;;1.40;;
11396;SDS011;5754;43.726;7.416;2023-09-19T05:00:28;3.95;;;1.60;;
11396;SDS011;5754;43.726;7.416;2023-09-19T05:03:04;1.65;;;1.55;;
11396;SDS011;5754;43.726;7.416;2023-09-19T05:05:39;1.95;;;1.55;;
11396;SDS011;5754;43.726;7.416;2023-09-19T05:08:14;1.60;;;1.50;;
11396;SDS011;5754;43.726;7.416;2023-09-19T05:10:49;2.72;;;1.70;;
11396;SDS011;5754;43.726;7.416;2023-09-19T05:13:25;3.42;;;1.80;;
11396;SDS011;5754;43.726;7.416;2023-09-19T05:16:01;2.55;;;1.90;;
11396;SDS011;5754;43.726;7.416;2023-09-19T05:18:36;1.65;;;1.55;;
11396;SDS011;5754;43.726;7.416;2023-09-19T05:21:11;4.70;;;1.77;;
11396;SDS011;5754;43.726;7.416;2023-09-19T05:23:47;31.80;;;3.62;;
11396;SDS011;5754;43.726;7.416;2023-09-19T05:26:23;3.33;;;1.77;;
11396;SDS011;5754;43.726;7.416;2023-09-19T05:28:59;2.47;;;1.90;;
11396;SDS011;5754;43.726;7.416;2023-09-19T05:31:35;3.80;;;1.83;;
11396;SDS011;5754;43.726;7.416;2023-09-19T05:34:15;7.25;;;1.80;;
11396;SDS011;5754;43.726;7.416;2023-09-19T05:36:50;1.80;;;1.67;;
11396;SDS011;5754;43.726;7.416;2023-09-19T05:39:25;3.92;;;2.00;;
11396;SDS011;5754;43.726;7.416;2023-09-19T05:42:00;8.10;;;2.05;;
11396;SDS011;5754;43.726;7.416;2023-09-19T05:44:35;2.65;;;1.87;;
11396;SDS011;5754;43.726;7.416;2023-09-19T05:47:10;2.12;;;1.70;;
11396;SDS011;5754;43.726;7.416;2023-09-19T05:49:45;2.92;;;1.83;;
11396;SDS011;5754;43.726;7.416;2023-09-19T05:52:20;1.92;;;1.45;;
11396;SDS011;5754;43.726;7.416;2023-09-19T05:54:56;2.03;;;1.83;;
11396;SDS011;5754;43.726;7.416;2023-09-19T05:57:31;1.83;;;1.73;;
11396;SDS011;5754;43.726;7.416;2023-09-19T06:00:06;5.55;;;1.90;;
11396;SDS011;5754;43.726;7.416;2023-09-19T06:02:51;3.40;;;1.50;;
11396;SDS011;5754;43.726;7.416;2023-09-19T06:05:26;4.80;;;1.75;;
11396;SDS011;5754;43.726;7.416;2023-09-19T06:08:05;2.08;;;1.52;;
11396;SDS011;5754;43.726;7.416;2023-09-19T06:10:42;5.22;;;2.05;;
11396;SDS011;5754;43.726;7.416;2023-09-19T06:13:16;2.03;;;1.48;;
11396;SDS011;5754;43.726;7.416;2023-09-19T06:15:53;3.53;;;2.10;;
11396;SDS011;5754;43.726;7.416;2023-09-19T06:18:31;4.05;;;2.17;;
11396;SDS011;5754;43.726;7.416;2023-09-19T06:21:07;8.18;;;2.05;;
11396;SDS011;5754;43.726;7.416;2023-09-19T06:23:44;3.37;;;1.90;;
11396;SDS011;5754;43.726;7.416;2023-09-19T06:26:18;2.30;;;1.80;;
11396;SDS011;5754;43.726;7.416;2023-09-19T06:28:57;2.08;;;1.83;;
11396;SDS011;5754;43.726;7.416;2023-09-19T06:31:38;15.80;;;2.08;;
11396;SDS011;5754;43.726;7.416;2023-09-19T06:34:14;5.50;;;1.95;;
11396;SDS011;5754;43.726;7.416;2023-09-19T06:36:52;2.87;;;1.92;;
11396;SDS011;5754;43.726;7.416;2023-09-19T06:39:29;1.87;;;1.58;;
11396;SDS011;5754;43.726;7.416;2023-09-19T06:42:05;1.65;;;1.55;;
11396;SDS011;5754;43.726;7.416;2023-09-19T06:44:40;3.72;;;1.92;;
11396;SDS011;5754;43.726;7.416;2023-09-19T06:47:14;1.80;;;1.70;;
11396;SDS011;5754;43.726;7.416;2023-09-19T06:49:50;2.35;;;1.87;;
11396;SDS011;5754;43.726;7.416;2023-09-19T06:52:25;2.83;;;1.90;;
11396;SDS011;5754;43.726;7.416;2023-09-19T06:55:02;2.33;;;1.70;;
11396;SDS011;5754;43.726;7.416;2023-09-19T06:57:37;3.55;;;1.85;;
11396;SDS011;5754;43.726;7.416;2023-09-19T07:00:14;4.03;;;1.90;;
11396;SDS011;5754;43.726;7.416;2023-09-19T07:02:59;3.05;;;1.83;;
11396;SDS011;5754;43.726;7.416;2023-09-19T07:05:38;2.47;;;1.98;;
11396;SDS011;5754;43.726;7.416;2023-09-19T07:08:13;4.87;;;2.30;;
11396;SDS011;5754;43.726;7.416;2023-09-19T07:10:49;3.62;;;2.85;;
11396;SDS011;5754;43.726;7.416;2023-09-19T07:13:26;5.30;;;2.90;;
11396;SDS011;5754;43.726;7.416;2023-09-19T07:16:02;6.97;;;2.80;;
11396;SDS011;5754;43.726;7.416;2023-09-19T07:18:37;3.33;;;2.20;;
11396;SDS011;5754;43.726;7.416;2023-09-19T07:21:12;4.50;;;2.70;;
11396;SDS011;5754;43.726;7.416;2023-09-19T07:23:49;4.82;;;2.28;;
11396;SDS011;5754;43.726;7.416;2023-09-19T07:26:26;5.93;;;2.80;;
11396;SDS011;5754;43.726;7.416;2023-09-19T07:29:02;6.90;;;2.80;;
11396;SDS011;5754;43.726;7.416;2023-09-19T07:31:37;4.85;;;2.58;;
11396;SDS011;5754;43.726;7.416;2023-09-19T07:34:12;5.03;;;2.12;;
11396;SDS011;5754;43.726;7.416;2023-09-19T07:36:48;4.00;;;2.30;;
11396;SDS011;5754;43.726;7.416;2023-09-19T07:39:23;6.45;;;2.80;;
11396;SDS011;5754;43.726;7.416;2023-09-19T07:41:58;6.05;;;2.70;;
11396;SDS011;5754;43.726;7.416;2023-09-19T07:44:34;5.28;;;2.95;;
11396;SDS011;5754;43.726;7.416;2023-09-19T07:47:10;7.75;;;3.05;;
11396;SDS011;5754;43.726;7.416;2023-09-19T07:49:46;7.10;;;3.10;;
11396;SDS011;5754;43.726;7.416;2023-09-19T07:52:22;4.72;;;2.65;;
11396;SDS011;5754;43.726;7.416;2023-09-19T07:54:56;6.82;;;3.20;;
11396;SDS011;5754;43.726;7.416;2023-09-19T07:57:31;5.07;;;2.70;;
11396;SDS011;5754;43.726;7.416;2023-09-19T08:00:08;6.07;;;2.70;;
11396;SDS011;5754;43.726;7.416;2023-09-19T08:02:59;9.68;;;3.17;;
11396;SDS011;5754;43.726;7.416;2023-09-19T08:05:37;7.12;;;3.03;;
11396;SDS011;5754;43.726;7.416;2023-09-19T08:08:15;9.27;;;3.17;;
11396;SDS011;5754;43.726;7.416;2023-09-19T08:10:53;6.70;;;2.75;;
11396;SDS011;5754;43.726;7.416;2023-09-19T08:13:30;5.20;;;2.90;;
11396;SDS011;5754;43.726;7.416;2023-09-19T08:16:04;8.15;;;3.20;;
11396;SDS011;5754;43.726;7.416;2023-09-19T08:18:40;9.45;;;3.30;;
11396;SDS011;5754;43.726;7.416;2023-09-19T08:21:15;6.32;;;3.12;;
11396;SDS011;5754;43.726;7.416;2023-09-19T08:23:53;7.75;;;2.97;;
11396;SDS011;5754;43.726;7.416;2023-09-19T08:26:27;6.85;;;3.28;;
11396;SDS011;5754;43.726;7.416;2023-09-19T08:29:03;9.00;;;3.05;;
11396;SDS011;5754;43.726;7.416;2023-09-19T08:31:41;6.32;;;3.37;;
11396;SDS011;5754;43.726;7.416;2023-09-19T08:34:17;10.13;;;2.80;;
11396;SDS011;5754;43.726;7.416;2023-09-19T08:36:54;9.18;;;3.25;;
11396;SDS011;5754;43.726;7.416;2023-09-19T08:39:32;10.10;;;3.20;;
11396;SDS011;5754;43.726;7.416;2023-09-19T08:42:08;9.70;;;3.35;;
11396;SDS011;5754;43.726;7.416;2023-09-19T08:44:45;11.65;;;3.55;;
11396;SDS011;5754;43.726;7.416;2023-09-19T08:47:21;7.47;;;3.40;;
11396;SDS011;5754;43.726;7.416;2023-09-19T08:54:28;9.13;;;3.20;;
11396;SDS011;5754;43.726;7.416;2023-09-19T08:57:07;9.57;;;3.22;;
11396;SDS011;5754;43.726;7.416;2023-09-19T08:59:45;8.40;;;3.35;;
11396;SDS011;5754;43.726;7.416;2023-09-19T09:02:21;10.52;;;3.80;;
11396;SDS011;5754;43.726;7.416;2023-09-19T09:05:04;12.18;;;3.80;;
11396;SDS011;5754;43.726;7.416;2023-09-19T09:07:40;8.73;;;3.58;;
11396;SDS011;5754;43.726;7.416;2023-09-19T09:10:15;8.70;;;4.07;;
11396;SDS011;5754;43.726;7.416;2023-09-19T09:12:53;6.75;;;3.45;;
11396;SDS011;5754;43.726;7.416;2023-09-19T09:15:34;9.65;;;3.60;;
11396;SDS011;5754;43.726;7.416;2023-09-19T09:18:10;7.12;;;3.25;;
11396;SDS011;5754;43.726;7.416;2023-09-19T09:20:59;10.20;;;3.97;;
11396;SDS011;5754;43.726;7.416;2023-09-19T09:23:34;13.88;;;3.90;;
11396;SDS011;5754;43.726;7.416;2023-09-19T09:26:09;8.77;;;3.65;;
11396;SDS011;5754;43.726;7.416;2023-09-19T09:28:44;11.15;;;4.10;;
11396;SDS011;5754;43.726;7.416;2023-09-19T09:31:23;12.23;;;3.58;;
11396;SDS011;5754;43.726;7.416;2023-09-19T09:33:58;10.63;;;4.25;;
11396;SDS011;5754;43.726;7.416;2023-09-19T09:36:39;9.57;;;3.92;;
11396;SDS011;5754;43.726;7.416;2023-09-19T09:39:29;8.60;;;3.55;;
11396;SDS011;5754;43.726;7.416;2023-09-19T09:42:05;9.77;;;4.20;;
11396;SDS011;5754;43.726;7.416;2023-09-19T09:44:40;10.05;;;3.83;;
11396;SDS011;5754;43.726;7.416;2023-09-19T09:47:18;8.00;;;3.67;;
11396;SDS011;5754;43.726;7.416;2023-09-19T09:50:32;8.35;;;3.78;;
11396;SDS011;5754;43.726;7.416;2023-09-19T09:53:30;10.85;;;4.50;;
11396;SDS011;5754;43.726;7.416;2023-09-19T09:56:08;12.00;;;3.37;;
11396;SDS011;5754;43.726;7.416;2023-09-19T09:58:51;6.35;;;3.62;;
11396;SDS011;5754;43.726;7.416;2023-09-19T10:01:45;8.60;;;3.50;;
11396;SDS011;5754;43.726;7.416;2023-09-19T10:04:28;9.95;;;4.30;;
11396;SDS011;5754;43.726;7.416;2023-09-19T10:07:10;6.20;;;3.42;;
11396;SDS011;5754;43.726;7.416;2023-09-19T10:10:01;8.85;;;3.75;;
11396;SDS011;5754;43.726;7.416;2023-09-19T10:12:55;8.35;;;3.95;;
11396;SDS011;5754;43.726;7.416;2023-09-19T10:15:37;10.25;;;4.00;;
11396;SDS011;5754;43.726;7.416;2023-09-19T10:18:21;9.68;;;4.10;;
11396;SDS011;5754;43.726;7.416;2023-09-19T10:20:57;11.07;;;3.33;;
11396;SDS011;5754;43.726;7.416;2023-09-19T10:23:32;8.05;;;3.50;;
11396;SDS011;5754;43.726;7.416;2023-09-19T10:26:08;9.00;;;3.60;;
11396;SDS011;5754;43.726;7.416;2023-09-19T10:28:46;11.15;;;3.90;;
11396;SDS011;5754;43.726;7.416;2023-09-19T10:31:24;9.23;;;3.70;;
11396;SDS011;5754;43.726;7.416;2023-09-19T10:34:02;10.27;;;3.78;;
11396;SDS011;5754;43.726;7.416;2023-09-19T10:36:38;8.63;;;3.67;;
11396;SDS011;5754;43.726;7.416;2023-09-19T10:39:16;11.60;;;3.97;;
11396;SDS011;5754;43.726;7.416;2023-09-19T10:41:55;8.15;;;3.58;;
11396;SDS011;5754;43.726;7.416;2023-09-19T10:44:32;7.60;;;3.50;;
11396;SDS011;5754;43.726;7.416;2023-09-19T10:47:09;10.98;;;3.65;;
11396;SDS011;5754;43.726;7.416;2023-09-19T10:49:45;11.30;;;4.50;;
11396;SDS011;5754;43.726;7.416;2023-09-19T10:52:21;8.80;;;3.80;;
11396;SDS011;5754;43.726;7.416;2023-09-19T10:54:57;6.90;;;3.35;;
11396;SDS011;5754;43.726;7.416;2023-09-19T10:57:35;10.30;;;3.65;;
11396;SDS011;5754;43.726;7.416;2023-09-19T11:00:13;10.48;;;3.90;;
11396;SDS011;5754;43.726;7.416;2023-09-19T11:07:25;8.75;;;3.58;;
11396;SDS011;5754;43.726;7.416;2023-09-19T11:10:00;9.00;;;3.65;;
11396;SDS011;5754;43.726;7.416;2023-09-19T11:24:34;9.02;;;3.80;;
11396;SDS011;5754;43.726;7.416;2023-09-19T11:27:12;10.77;;;3.70;;
11396;SDS011;5754;43.726;7.416;2023-09-19T11:29:52;7.32;;;3.60;;
11396;SDS011;5754;43.726;7.416;2023-09-19T11:33:15;10.23;;;3.87;;
11396;SDS011;5754;43.726;7.416;2023-09-19T11:36:19;5.57;;;3.10;;
11396;SDS011;5754;43.726;7.416;2023-09-19T11:39:24;6.57;;;3.03;;
11396;SDS011;5754;43.726;7.416;2023-09-19T11:42:01;9.57;;;3.90;;
11396;SDS011;5754;43.726;7.416;2023-09-19T11:48:09;11.48;;;3.87;;
11396;SDS011;5754;43.726;7.416;2023-09-19T11:50:46;9.63;;;3.65;;
11396;SDS011;5754;43.726;7.416;2023-09-19T11:53:23;10.35;;;3.65;;
11396;SDS011;5754;43.726;7.416;2023-09-19T11:55:58;8.80;;;3.90;;
11396;SDS011;5754;43.726;7.416;2023-09-19T11:58:34;8.13;;;3.92;;
11396;SDS011;5754;43.726;7.416;2023-09-19T12:01:13;9.30;;;3.85;;
11396;SDS011;5754;43.726;7.416;2023-09-19T12:03:54;14.52;;;4.20;;
11396;SDS011;5754;43.726;7.416;2023-09-19T12:06:30;12.68;;;4.35;;
11396;SDS011;5754;43.726;7.416;2023-09-19T12:09:12;13.07;;;3.90;;
11396;SDS011;5754;43.726;7.416;2023-09-19T12:11:52;11.00;;;4.40;;
11396;SDS011;5754;43.726;7.416;2023-09-19T12:14:27;10.98;;;4.47;;
11396;SDS011;5754;43.726;7.416;2023-09-19T12:17:02;11.07;;;4.60;;
11396;SDS011;5754;43.726;7.416;2023-09-19T12:19:38;7.62;;;4.10;;
11396;SDS011;5754;43.726;7.416;2023-09-19T12:22:12;11.77;;;4.62;;
11396;SDS011;5754;43.726;7.416;2023-09-19T12:24:48;10.15;;;4.40;;
11396;SDS011;5754;43.726;7.416;2023-09-19T12:27:24;11.77;;;4.15;;
11396;SDS011;5754;43.726;7.416;2023-09-19T12:30:01;12.40;;;4.20;;
11396;SDS011;5754;43.726;7.416;2023-09-19T12:32:43;11.38;;;4.72;;
11396;SDS011;5754;43.726;7.416;2023-09-19T12:35:31;9.10;;;4.18;;
11396;SDS011;5754;43.726;7.416;2023-09-19T12:38:09;12.37;;;4.18;;
11396;SDS011;5754;43.726;7.416;2023-09-19T12:40:46;11.75;;;4.18;;
11396;SDS011;5754;43.726;7.416;2023-09-19T12:43:23;13.57;;;4.95;;
11396;SDS011;5754;43.726;7.416;2023-09-19T12:45:59;14.15;;;4.85;;
11396;SDS011;5754;43.726;7.416;2023-09-19T12:48:36;9.65;;;4.22;;
11396;SDS011;5754;43.726;7.416;2023-09-19T12:51:11;10.35;;;4.50;;
11396;SDS011;5754;43.726;7.416;2023-09-19T12:53:46;13.43;;;4.43;;
11396;SDS011;5754;43.726;7.416;2023-09-19T12:56:22;16.35;;;4.80;;
11396;SDS011;5754;43.726;7.416;2023-09-19T12:58:58;11.43;;;4.97;;
11396;SDS011;5754;43.726;7.416;2023-09-19T13:01:37;9.85;;;4.22;;
11396;SDS011;5754;43.726;7.416;2023-09-19T13:04:20;10.00;;;4.28;;
11396;SDS011;5754;43.726;7.416;2023-09-19T13:07:03;11.77;;;4.30;;
11396;SDS011;5754;43.726;7.416;2023-09-19T13:09:38;9.85;;;4.30;;
11396;SDS011;5754;43.726;7.416;2023-09-19T13:15:11;10.65;;;4.47;;
11396;SDS011;5754;43.726;7.416;2023-09-19T13:18:11;11.45;;;4.30;;
11396;SDS011;5754;43.726;7.416;2023-09-19T13:21:09;12.10;;;4.68;;
11396;SDS011;5754;43.726;7.416;2023-09-19T13:24:01;14.27;;;4.62;;
11396;SDS011;5754;43.726;7.416;2023-09-19T13:27:04;10.30;;;3.87;;
11396;SDS011;5754;43.726;7.416;2023-09-19T13:29:41;10.15;;;4.30;;
11396;SDS011;5754;43.726;7.416;2023-09-19T13:32:15;11.95;;;3.80;;
11396;SDS011;5754;43.726;7.416;2023-09-19T13:34:51;11.45;;;4.35;;
11396;SDS011;5754;43.726;7.416;2023-09-19T13:37:25;9.65;;;4.07;;
11396;SDS011;5754;43.726;7.416;2023-09-19T13:40:00;11.43;;;3.92;;
11396;SDS011;5754;43.726;7.416;2023-09-19T13:42:47;12.35;;;4.32;;
11396;SDS011;5754;43.726;7.416;2023-09-19T13:45:22;14.77;;;4.53;;
11396;SDS011;5754;43.726;7.416;2023-09-19T13:48:01;10.05;;;3.83;;
11396;SDS011;5754;43.726;7.416;2023-09-19T13:50:36;10.40;;;3.60;;
11396;SDS011;5754;43.726;7.416;2023-09-19T13:53:16;12.75;;;4.80;;
11396;SDS011;5754;43.726;7.416;2023-09-19T13:55:50;10.75;;;4.55;;
11396;SDS011;5754;43.726;7.416;2023-09-19T13:58:25;8.02;;;3.45;;
11396;SDS011;5754;43.726;7.416;2023-09-19T14:01:00;9.48;;;4.25;;
11396;SDS011;5754;43.726;7.416;2023-09-19T14:03:37;11.75;;;4.07;;
11396;SDS011;5754;43.726;7.416;2023-09-19T14:06:12;8.40;;;3.75;;
11396;SDS011;5754;43.726;7.416;2023-09-19T14:08:47;11.23;;;3.72;;
11396;SDS011;5754;43.726;7.416;2023-09-19T14:11:23;9.27;;;4.15;;
11396;SDS011;5754;43.726;7.416;2023-09-19T14:13:58;8.25;;;4.10;;
11396;SDS011;5754;43.726;7.416;2023-09-19T14:16:34;10.18;;;4.35;;
11396;SDS011;5754;43.726;7.416;2023-09-19T14:19:09;8.40;;;3.37;;
11396;SDS011;5754;43.726;7.416;2023-09-19T14:21:43;7.90;;;3.35;;
11396;SDS011;5754;43.726;7.416;2023-09-19T14:24:19;10.55;;;4.00;;
11396;SDS011;5754;43.726;7.416;2023-09-19T14:26:54;10.00;;;4.18;;
11396;SDS011;5754;43.726;7.416;2023-09-19T14:29:30;6.47;;;3.28;;
11396;SDS011;5754;43.726;7.416;2023-09-19T14:32:05;9.65;;;3.87;;
11396;SDS011;5754;43.726;7.416;2023-09-19T14:34:40;7.32;;;3.67;;
11396;SDS011;5754;43.726;7.416;2023-09-19T14:37:16;8.23;;;3.87;;
11396;SDS011;5754;43.726;7.416;2023-09-19T14:39:51;8.40;;;3.92;;
11396;SDS011;5754;43.726;7.416;2023-09-19T14:42:26;12.75;;;3.65;;
11396;SDS011;5754;43.726;7.416;2023-09-19T14:45:00;9.70;;;3.67;;
11396;SDS011;5754;43.726;7.416;2023-09-19T14:47:35;9.05;;;3.22;;
11396;SDS011;5754;43.726;7.416;2023-09-19T14:50:11;8.95;;;4.00;;
11396;SDS011;5754;43.726;7.416;2023-09-19T14:52:46;6.32;;;3.60;;
11396;SDS011;5754;43.726;7.416;2023-09-19T14:55:23;8.65;;;3.90;;
11396;SDS011;5754;43.726;7.416;2023-09-19T14:57:58;6.45;;;3.17;;
11396;SDS011;5754;43.726;7.416;2023-09-19T15:00:34;8.68;;;3.83;;
11396;SDS011;5754;43.726;7.416;2023-09-19T15:03:09;9.18;;;4.10;;
11396;SDS011;5754;43.726;7.416;2023-09-19T15:05:45;6.65;;;3.78;;
11396;SDS011;5754;43.726;7.416;2023-09-19T15:08:20;9.32;;;4.03;;
11396;SDS011;5754;43.726;7.416;2023-09-19T15:10:57;9.60;;;3.60;;
11396;SDS011;5754;43.726;7.416;2023-09-19T15:13:38;8.85;;;3.83;;
11396;SDS011;5754;43.726;7.416;2023-09-19T15:16:14;7.70;;;3.65;;
11396;SDS011;5754;43.726;7.416;2023-09-19T15:18:49;8.38;;;3.50;;
11396;SDS011;5754;43.726;7.416;2023-09-19T15:21:25;9.73;;;3.58;;
11396;SDS011;5754;43.726;7.416;2023-09-19T15:24:01;10.50;;;3.50;;
11396;SDS011;5754;43.726;7.416;2023-09-19T15:26:37;8.00;;;3.83;;
11396;SDS011;5754;43.726;7.416;2023-09-19T15:29:17;7.43;;;3.65;;
11396;SDS011;5754;43.726;7.416;2023-09-19T15:31:54;10.35;;;4.15;;
11396;SDS011;5754;43.726;7.416;2023-09-19T15:34:33;10.88;;;3.90;;
11396;SDS011;5754;43.726;7.416;2023-09-19T15:37:07;10.25;;;3.90;;
11396;SDS011;5754;43.726;7.416;2023-09-19T15:39:42;7.70;;;3.97;;
11396;SDS011;5754;43.726;7.416;2023-09-19T15:42:20;6.12;;;3.47;;
11396;SDS011;5754;43.726;7.416;2023-09-19T15:44:55;9.48;;;4.30;;
11396;SDS011;5754;43.726;7.416;2023-09-19T15:47:30;6.82;;;3.05;;
11396;SDS011;5754;43.726;7.416;2023-09-19T15:50:06;7.75;;;3.05;;
11396;SDS011;5754;43.726;7.416;2023-09-19T15:52:43;7.00;;;3.35;;
11396;SDS011;5754;43.726;7.416;2023-09-19T15:55:19;9.10;;;3.22;;
11396;SDS011;5754;43.726;7.416;2023-09-19T15:57:53;6.47;;;3.05;;
11396;SDS011;5754;43.726;7.416;2023-09-19T16:00:29;9.15;;;3.45;;
11396;SDS011;5754;43.726;7.416;2023-09-19T16:03:03;10.02;;;3.40;;
11396;SDS011;5754;43.726;7.416;2023-09-19T16:05:38;10.50;;;2.70;;
11396;SDS011;5754;43.726;7.416;2023-09-19T16:08:13;9.15;;;2.90;;
11396;SDS011;5754;43.726;7.416;2023-09-19T16:10:48;8.60;;;3.22;;
11396;SDS011;5754;43.726;7.416;2023-09-19T16:13:24;8.95;;;3.12;;
11396;SDS011;5754;43.726;7.416;2023-09-19T16:16:01;9.13;;;3.28;;
11396;SDS011;5754;43.726;7.416;2023-09-19T16:18:35;10.65;;;3.58;;
11396;SDS011;5754;43.726;7.416;2023-09-19T16:21:11;7.47;;;2.58;;
11396;SDS011;5754;43.726;7.416;2023-09-19T16:23:46;6.15;;;2.75;;
11396;SDS011;5754;43.726;7.416;2023-09-19T16:26:22;6.57;;;2.90;;
11396;SDS011;5754;43.726;7.416;2023-09-19T16:29:00;7.07;;;3.05;;
11396;SDS011;5754;43.726;7.416;2023-09-19T16:31:36;7.75;;;3.47;;
11396;SDS011;5754;43.726;7.416;2023-09-19T16:34:10;7.97;;;3.05;;
11396;SDS011;5754;43.726;7.416;2023-09-19T16:36:45;9.35;;;3.22;;
11396;SDS011;5754;43.726;7.416;2023-09-19T16:39:20;9.68;;;3.33;;
11396;SDS011;5754;43.726;7.416;2023-09-19T16:41:55;11.60;;;3.72;;